createdAt,value
2022-09-25T00:01:03.363Z,72.90
2022-09-25T00:03:35.072Z,72.90
2022-09-25T00:06:09.523Z,72.80
2022-09-25T00:08:43.632Z,72.80
2022-09-25T00:11:18.460Z,72.80
2022-09-25T00:13:51.614Z,72.80
2022-09-25T00:16:38.380Z,73.20
2022-09-25T00:19:38.679Z,72.80
2022-09-25T00:22:10.070Z,72.90
2022-09-25T00:24:39.173Z,72.90
2022-09-25T00:27:14.789Z,72.90
2022-09-25T00:29:47.213Z,73.00
2022-09-25T00:32:25.261Z,73.00
2022-09-25T00:41:56.489Z,71.80
2022-09-25T00:45:08.451Z,72.60
2022-09-25T00:47:50.125Z,73.00
2022-09-25T00:50:26.360Z,72.80
2022-09-25T00:52:59.015Z,72.70
2022-09-25T00:55:27.719Z,73.40
2022-09-25T00:57:58.313Z,73.80
2022-09-25T01:00:27.071Z,74.10
2022-09-25T01:02:58.876Z,73.90
2022-09-25T01:05:30.637Z,73.50
2022-09-25T01:08:06.047Z,74.20
2022-09-25T01:10:34.954Z,74.00
2022-09-25T01:13:04.666Z,74.10
2022-09-25T01:15:42.026Z,73.90
2022-09-25T01:18:21.510Z,73.10
2022-09-25T01:21:07.334Z,72.90
2022-09-25T01:24:07.833Z,72.80
2022-09-25T01:27:10.073Z,72.70
2022-09-25T01:29:50.301Z,72.70
2022-09-25T01:32:25.131Z,72.90
2022-09-25T01:35:03.990Z,72.70
2022-09-25T01:37:38.601Z,73.40
2022-09-25T01:40:14.693Z,73.20
2022-09-25T01:42:52.716Z,73.20
2022-09-25T01:45:44.607Z,72.70
2022-09-25T01:48:27.566Z,73.50
2022-09-25T01:51:07.681Z,74.60
2022-09-25T01:53:52.984Z,75.00
2022-09-25T01:56:41.822Z,74.60
2022-09-25T01:59:23.844Z,74.20
2022-09-25T02:02:12.133Z,73.70
2022-09-25T02:04:45.963Z,73.70
2022-09-25T02:07:31.844Z,73.40
2022-09-25T02:10:09.871Z,73.50
2022-09-25T02:12:47.058Z,72.80
2022-09-25T02:15:38.341Z,73.50
2022-09-25T02:18:37.902Z,73.40
2022-09-25T02:21:27.258Z,73.40
2022-09-25T02:24:14.955Z,73.30
2022-09-25T02:27:00.591Z,73.40
2022-09-25T02:29:48.971Z,73.00
2022-09-25T02:32:34.952Z,73.60
2022-09-25T02:35:18.118Z,74.00
2022-09-25T02:38:06.274Z,74.90
2022-09-25T02:40:57.753Z,74.50
2022-09-25T02:44:00.637Z,74.60
2022-09-25T02:46:40.431Z,74.00
2022-09-25T02:49:21.880Z,73.70
2022-09-25T02:52:07.145Z,73.80
2022-09-25T02:54:44.350Z,73.80
2022-09-25T02:57:50.055Z,73.50
2022-09-25T03:00:25.647Z,74.00
2022-09-25T03:03:00.938Z,72.90
2022-09-25T03:05:30.816Z,73.00
2022-09-25T03:08:18.832Z,72.90
2022-09-25T03:10:54.301Z,73.00
2022-09-25T03:13:32.006Z,72.90
2022-09-25T03:16:04.146Z,72.90
2022-09-25T03:18:32.635Z,73.10
2022-09-25T03:21:01.130Z,73.20
2022-09-25T03:23:31.008Z,73.30
2022-09-25T03:26:00.038Z,73.40
2022-09-25T03:28:28.639Z,73.60
2022-09-25T03:30:59.163Z,73.50
2022-09-25T03:33:28.787Z,73.70
2022-09-25T03:36:10.865Z,73.70
2022-09-25T03:38:41.983Z,73.00
2022-09-25T03:41:11.458Z,73.00
2022-09-25T03:43:41.275Z,73.00
2022-09-25T03:46:11.572Z,72.90
2022-09-25T03:48:40.062Z,73.00
2022-09-25T03:51:09.215Z,72.90
2022-09-25T03:53:38.407Z,73.30
2022-09-25T03:56:11.812Z,73.10
2022-09-25T03:58:40.402Z,73.50
2022-09-25T04:01:08.821Z,74.10
2022-09-25T04:03:37.268Z,73.30
2022-09-25T04:06:07.366Z,73.70
2022-09-25T04:08:37.186Z,73.70
2022-09-25T04:11:07.524Z,74.40
2022-09-25T04:13:37.292Z,74.60
2022-09-25T04:16:08.327Z,75.60
2022-09-25T04:18:37.282Z,76.20
2022-09-25T04:21:08.412Z,75.90
2022-09-25T04:23:37.672Z,75.80
2022-09-25T04:26:10.256Z,76.00
2022-09-25T04:28:39.079Z,75.90
2022-09-25T04:31:08.028Z,75.80
2022-09-25T04:33:47.995Z,75.70
2022-09-25T04:36:17.498Z,75.40
2022-09-25T04:38:46.393Z,75.30
2022-09-25T04:41:19.764Z,74.50
2022-09-25T04:43:48.637Z,74.80
2022-09-25T04:46:21.770Z,74.30
2022-09-25T04:48:51.416Z,74.10
2022-09-25T04:51:20.082Z,74.20
2022-09-25T04:53:48.464Z,73.70
2022-09-25T04:56:18.716Z,73.30
2022-09-25T04:58:48.054Z,73.80
2022-09-25T05:01:17.944Z,73.30
2022-09-25T05:03:50.268Z,73.30
2022-09-25T05:06:21.903Z,73.00
2022-09-25T05:08:50.640Z,72.70
2022-09-25T05:11:21.281Z,72.70
2022-09-25T05:13:51.462Z,72.80
2022-09-25T05:16:20.493Z,72.80
2022-09-25T05:18:48.898Z,72.70
2022-09-25T05:21:16.898Z,72.70
2022-09-25T05:23:44.923Z,72.70
2022-09-25T05:26:13.098Z,72.70
2022-09-25T05:28:42.417Z,72.70
2022-09-25T05:31:11.203Z,72.70
2022-09-25T05:33:39.303Z,72.70
2022-09-25T05:36:08.699Z,72.70
2022-09-25T05:38:37.991Z,72.70
2022-09-25T05:41:07.497Z,72.70
2022-09-25T05:43:39.173Z,72.60
2022-09-25T05:46:08.759Z,72.90
2022-09-25T05:48:37.334Z,72.70
2022-09-25T05:51:05.696Z,72.20
2022-09-25T05:53:33.926Z,72.80
2022-09-25T05:56:03.920Z,72.70
2022-09-25T05:58:33.623Z,72.70
2022-09-25T06:01:03.212Z,72.70
2022-09-25T06:03:32.925Z,72.70
2022-09-25T06:06:02.080Z,72.70
2022-09-25T06:08:31.550Z,72.80
2022-09-25T06:11:00.795Z,72.70
2022-09-25T06:13:29.244Z,72.70
2022-09-25T06:15:57.391Z,72.70
2022-09-25T06:18:26.260Z,72.70
2022-09-25T06:21:01.593Z,72.70
2022-09-25T06:23:29.705Z,72.70
2022-09-25T06:26:02.491Z,72.60
2022-09-25T06:28:31.065Z,73.30
2022-09-25T06:31:01.634Z,73.30
2022-09-25T06:33:29.754Z,72.80
2022-09-25T06:36:00.326Z,72.70
2022-09-25T06:38:28.586Z,72.70
2022-09-25T06:40:59.844Z,72.70
2022-09-25T06:43:29.037Z,72.70
2022-09-25T06:46:02.491Z,72.70
2022-09-25T06:48:30.921Z,72.70
2022-09-25T06:51:01.795Z,72.70
2022-09-25T06:53:29.793Z,73.70
2022-09-25T06:55:59.833Z,74.10
2022-09-25T06:58:28.861Z,74.00
2022-09-25T07:00:57.831Z,73.20
2022-09-25T07:03:43.252Z,73.60
2022-09-25T07:06:14.460Z,73.20
2022-09-25T07:08:43.621Z,73.70
2022-09-25T07:11:14.803Z,73.20
2022-09-25T07:13:43.031Z,73.10
2022-09-25T07:16:14.084Z,72.60
2022-09-25T07:18:42.156Z,72.70
2022-09-25T07:21:12.872Z,72.70
2022-09-25T07:23:42.070Z,72.80
2022-09-25T07:26:12.910Z,72.60
2022-09-25T07:28:42.351Z,73.50
2022-09-25T07:31:16.132Z,72.70
2022-09-25T07:33:44.491Z,72.70
2022-09-25T07:36:14.316Z,72.70
2022-09-25T07:38:42.467Z,73.90
2022-09-25T07:41:12.971Z,73.30
2022-09-25T07:43:42.154Z,72.80
2022-09-25T07:46:10.693Z,72.80
2022-09-25T07:48:38.969Z,72.70
2022-09-25T07:51:10.158Z,73.50
2022-09-25T07:53:40.633Z,73.20
2022-09-25T07:56:09.276Z,73.90
2022-09-25T07:58:37.298Z,72.80
2022-09-25T08:01:07.525Z,73.70
2022-09-25T08:03:35.859Z,74.80
2022-09-25T08:06:05.467Z,74.90
2022-09-25T08:08:35.645Z,74.40
2022-09-25T08:11:07.730Z,74.20
2022-09-25T08:13:37.406Z,73.80
2022-09-25T08:16:06.753Z,73.70
2022-09-25T08:18:35.091Z,75.50
2022-09-25T08:21:03.985Z,76.10
2022-09-25T08:23:32.884Z,76.00
2022-09-25T08:26:01.593Z,75.40
2022-09-25T08:28:31.124Z,74.70
2022-09-25T08:31:00.210Z,74.80
2022-09-25T08:33:29.918Z,75.30
2022-09-25T08:35:59.699Z,74.90
2022-09-25T08:38:28.686Z,75.30
2022-09-25T08:41:01.718Z,77.20
2022-09-25T08:43:33.816Z,76.90
2022-09-25T08:46:24.135Z,74.50
2022-09-25T08:49:06.283Z,76.50
2022-09-25T08:51:39.523Z,75.40
2022-09-25T08:54:08.276Z,75.80
2022-09-25T08:56:37.630Z,73.40
2022-09-25T08:59:22.853Z,73.90
2022-09-25T09:01:54.792Z,73.20
2022-09-25T09:04:27.932Z,75.00
2022-09-25T09:07:25.931Z,76.30
2022-09-25T09:09:58.102Z,75.20
2022-09-25T09:12:33.128Z,74.30
2022-09-25T09:15:15.930Z,73.60
2022-09-25T09:17:44.497Z,74.40
2022-09-25T09:20:19.086Z,75.10
2022-09-25T09:22:53.133Z,73.70
2022-09-25T09:25:29.018Z,72.40
2022-09-25T09:28:19.220Z,74.30
2022-09-25T09:30:54.658Z,73.20
2022-09-25T09:33:35.287Z,74.90
2022-09-25T09:36:10.346Z,75.30
2022-09-25T09:38:48.254Z,74.50
2022-09-25T09:41:29.394Z,75.50
2022-09-25T09:44:07.219Z,75.20
2022-09-25T09:46:47.634Z,73.20
2022-09-25T09:49:23.000Z,73.20
2022-09-25T09:51:55.440Z,71.30
2022-09-25T09:54:28.651Z,73.00
2022-09-25T09:56:58.617Z,73.80
2022-09-25T09:59:31.553Z,74.40
2022-09-25T10:02:06.110Z,73.80
2022-09-25T10:04:39.047Z,73.10
2022-09-25T10:07:13.134Z,73.10
2022-09-25T10:09:41.403Z,72.90
2022-09-25T10:12:21.927Z,72.90
2022-09-25T10:14:53.150Z,72.90
2022-09-25T10:17:36.517Z,75.00
2022-09-25T10:20:16.046Z,74.10
2022-09-25T10:22:47.391Z,74.30
2022-09-25T10:25:34.804Z,74.70
2022-09-25T10:28:27.657Z,73.70
2022-09-25T10:30:57.412Z,73.80
2022-09-25T10:33:34.564Z,74.80
2022-09-25T10:36:03.747Z,72.60
2022-09-25T10:38:41.998Z,73.60
2022-09-25T10:41:14.941Z,73.10
2022-09-25T10:44:02.152Z,73.80
2022-09-25T10:46:49.232Z,73.20
2022-09-25T10:49:38.307Z,71.80
2022-09-25T10:52:09.471Z,71.10
2022-09-25T10:54:44.488Z,71.30
2022-09-25T10:57:23.313Z,73.10
2022-09-25T10:59:53.223Z,73.20
2022-09-25T11:02:34.126Z,73.20
2022-09-25T11:05:29.101Z,74.70
2022-09-25T11:08:02.188Z,74.10
2022-09-25T11:10:35.704Z,73.20
2022-09-25T11:13:09.481Z,70.80
2022-09-25T11:15:39.351Z,68.10
2022-09-25T11:18:29.738Z,68.30
2022-09-25T11:21:09.382Z,69.90
2022-09-25T11:31:43.009Z,69.80
2022-09-25T11:34:41.108Z,70.20
2022-09-25T11:37:24.430Z,69.10
2022-09-25T11:41:19.400Z,70.60
2022-09-25T11:45:01.704Z,71.30
2022-09-25T11:48:40.473Z,71.60
2022-09-25T11:52:03.096Z,70.50
2022-09-25T11:55:49.546Z,68.40
2022-09-25T12:19:36.969Z,65.10
2022-09-25T12:23:11.135Z,65.90
2022-09-25T12:26:07.465Z,64.60
2022-09-25T12:29:07.739Z,65.70
2022-09-25T12:32:06.683Z,64.60
2022-09-25T12:35:01.211Z,65.70
2022-09-25T12:37:38.987Z,66.40
2022-09-25T12:40:19.257Z,67.30
2022-09-25T12:42:53.906Z,67.50
2022-09-25T12:45:31.704Z,71.40
2022-09-25T12:48:12.038Z,76.10
2022-09-25T12:51:19.572Z,74.70
2022-09-25T12:54:52.248Z,75.80
2022-09-25T12:57:42.567Z,73.80
2022-09-25T13:01:30.446Z,73.90
2022-09-25T13:03:45.186Z,70.10
2022-09-25T13:06:25.175Z,70.20
2022-09-25T13:09:09.182Z,70.00
2022-09-25T13:11:45.675Z,70.00
2022-09-25T13:14:25.345Z,72.20
2022-09-25T13:16:53.852Z,73.30
2022-09-25T13:19:33.404Z,73.00
2022-09-25T13:22:05.453Z,72.70
2022-09-25T13:24:41.011Z,72.80
2022-09-25T13:27:16.837Z,73.00
2022-09-25T13:30:21.828Z,73.90
2022-09-25T13:33:01.472Z,73.40
2022-09-25T13:35:37.709Z,75.30
2022-09-25T13:38:41.107Z,73.80
2022-09-25T13:41:11.079Z,73.10
2022-09-25T13:43:39.877Z,73.80
2022-09-25T13:46:29.245Z,71.50
2022-09-25T13:49:39.958Z,71.80
2022-09-25T13:52:51.714Z,72.30
2022-09-25T13:55:34.474Z,71.80
2022-09-25T13:58:18.675Z,71.40
2022-09-25T14:01:02.145Z,69.40
2022-09-25T14:03:41.910Z,68.40
2022-09-25T14:06:16.409Z,66.20
2022-09-25T14:08:52.099Z,67.50
2022-09-25T14:11:31.235Z,67.90
2022-09-25T14:14:29.450Z,69.20
2022-09-25T14:17:02.411Z,68.40
2022-09-25T14:19:34.064Z,67.10
2022-09-25T14:22:17.788Z,68.00
2022-09-25T14:24:48.821Z,68.90
2022-09-25T14:27:28.338Z,68.40
2022-09-25T14:30:17.127Z,66.10
2022-09-25T14:33:03.779Z,67.60
2022-09-25T14:35:58.861Z,69.90
2022-09-25T14:38:46.209Z,70.50
2022-09-25T14:41:45.431Z,69.30
2022-09-25T14:45:08.728Z,69.00
2022-09-25T14:47:45.967Z,72.60
2022-09-25T14:50:26.851Z,74.30
2022-09-25T14:53:16.814Z,74.60
2022-09-25T14:55:56.368Z,74.90
2022-09-25T14:58:41.586Z,73.90
2022-09-25T15:01:20.383Z,74.90
2022-09-25T15:04:02.238Z,76.70
2022-09-25T15:06:33.305Z,74.80
2022-09-25T15:09:32.022Z,76.20
2022-09-25T15:12:31.724Z,77.80
2022-09-25T15:15:11.206Z,77.20
2022-09-25T15:17:49.751Z,77.80
2022-09-25T15:20:25.851Z,76.70
2022-09-25T15:22:59.700Z,76.40
2022-09-25T15:25:36.723Z,75.80
2022-09-25T15:28:07.699Z,75.40
2022-09-25T15:30:42.029Z,74.90
2022-09-25T15:33:31.120Z,74.90
2022-09-25T15:36:04.169Z,74.70
2022-09-25T15:38:46.020Z,74.50
2022-09-25T15:41:18.431Z,74.50
2022-09-25T15:43:51.362Z,75.60
2022-09-25T15:46:39.282Z,74.80
2022-09-25T15:49:18.035Z,75.10
2022-09-25T15:51:53.994Z,75.20
2022-09-25T15:54:38.280Z,75.40
2022-09-25T15:57:17.880Z,76.20
2022-09-25T16:00:06.374Z,75.80
2022-09-25T16:02:57.727Z,76.40
2022-09-25T16:05:33.140Z,74.90
2022-09-25T16:08:36.346Z,74.70
2022-09-25T16:11:26.331Z,75.70
2022-09-25T16:14:35.068Z,76.10
2022-09-25T16:17:38.998Z,74.40
2022-09-25T16:20:36.144Z,74.80
2022-09-25T16:23:27.321Z,74.50
2022-09-25T16:26:07.799Z,73.50
2022-09-25T16:36:56.191Z,72.90
2022-09-25T16:39:45.678Z,73.00
2022-09-25T16:42:40.268Z,73.00
2022-09-25T16:45:27.350Z,72.70
2022-09-25T16:48:04.542Z,71.80
2022-09-25T16:50:51.992Z,71.10
2022-09-25T16:53:34.747Z,72.10
2022-09-25T16:56:56.714Z,72.10
2022-09-25T16:59:51.036Z,71.70
2022-09-25T17:02:37.334Z,71.70
2022-09-25T17:05:08.746Z,71.50
2022-09-25T17:07:38.005Z,71.80
2022-09-25T17:10:13.694Z,71.70
2022-09-25T17:12:48.708Z,71.80
2022-09-25T17:15:24.942Z,70.70
2022-09-25T17:17:55.633Z,70.90
2022-09-25T17:20:47.148Z,71.80
2022-09-25T17:23:50.516Z,70.80
2022-09-25T17:26:28.993Z,70.90
2022-09-25T17:29:02.406Z,70.60
2022-09-25T17:31:34.222Z,70.20
2022-09-25T17:34:03.881Z,70.30
2022-09-25T17:36:32.939Z,70.30
2022-09-25T17:39:14.608Z,70.60
2022-09-25T17:41:50.673Z,70.60
2022-09-25T17:44:23.650Z,70.40
2022-09-25T17:46:54.571Z,69.60
2022-09-25T17:49:23.507Z,70.10
2022-09-25T17:51:52.679Z,70.50
2022-09-25T17:54:42.655Z,71.10
2022-09-25T17:57:11.437Z,71.50
2022-09-25T17:59:41.162Z,70.50
2022-09-25T18:02:17.322Z,71.40
2022-09-25T18:04:45.950Z,72.30
2022-09-25T18:07:15.392Z,72.70
2022-09-25T18:09:50.017Z,72.30
2022-09-25T18:12:19.218Z,72.60
2022-09-25T18:14:50.910Z,73.20
2022-09-25T18:17:31.704Z,73.10
2022-09-25T18:20:25.418Z,73.30
2022-09-25T18:22:56.397Z,74.30
2022-09-25T18:25:30.300Z,74.40
2022-09-25T18:27:58.638Z,74.10
2022-09-25T18:30:30.736Z,74.80
2022-09-25T18:33:01.966Z,74.40
2022-09-25T18:35:30.268Z,73.40
2022-09-25T18:38:00.301Z,73.00
2022-09-25T18:40:29.028Z,73.80
2022-09-25T18:42:59.577Z,73.90
2022-09-25T18:45:29.589Z,74.40
2022-09-25T18:47:58.248Z,74.30
2022-09-25T18:50:28.818Z,74.50
2022-09-25T18:52:57.189Z,73.90
2022-09-25T18:55:26.335Z,74.10
2022-09-25T18:57:54.832Z,74.10
2022-09-25T19:00:23.373Z,74.00
2022-09-25T19:02:56.492Z,74.20
2022-09-25T19:05:28.952Z,74.30
2022-09-25T19:07:57.998Z,74.20
2022-09-25T19:10:30.632Z,74.20
2022-09-25T19:12:59.561Z,74.50
2022-09-25T19:15:35.433Z,74.40
2022-09-25T19:18:09.171Z,74.40
2022-09-25T19:20:40.362Z,73.90
2022-09-25T19:23:09.425Z,73.90
2022-09-25T19:25:38.910Z,73.80
2022-09-25T19:28:12.137Z,73.90
2022-09-25T19:30:43.966Z,74.50
2022-09-25T19:33:26.122Z,74.50
2022-09-25T19:35:59.008Z,73.80
2022-09-25T19:38:31.081Z,74.70
2022-09-25T19:41:00.154Z,75.00
2022-09-25T19:43:29.342Z,74.80
2022-09-25T19:45:58.642Z,73.90
2022-09-25T19:48:28.786Z,73.60
2022-09-25T19:50:57.236Z,73.00
2022-09-25T19:53:30.047Z,73.90
2022-09-25T19:55:59.255Z,73.90
2022-09-25T19:58:28.032Z,74.00
2022-09-25T20:00:57.105Z,73.80
2022-09-25T20:03:33.733Z,73.50
2022-09-25T20:06:02.745Z,73.50
2022-09-25T20:08:32.045Z,73.80
2022-09-25T20:11:00.939Z,74.20
2022-09-25T20:13:37.093Z,74.40
2022-09-25T20:16:14.344Z,73.30
2022-09-25T20:18:44.881Z,73.70
2022-09-25T20:21:15.266Z,73.70
2022-09-25T20:23:44.038Z,72.80
2022-09-25T20:26:18.866Z,73.50
2022-09-25T20:28:48.230Z,73.40
2022-09-25T20:31:17.326Z,74.20
2022-09-25T20:33:47.707Z,73.80
2022-09-25T20:36:17.441Z,74.30
2022-09-25T20:38:50.169Z,74.00
2022-09-25T20:41:19.295Z,73.90
2022-09-25T20:43:54.460Z,73.30
2022-09-25T20:46:24.054Z,73.40
2022-09-25T20:49:06.745Z,73.40
2022-09-25T20:51:37.228Z,73.50
2022-09-25T20:54:12.989Z,73.70
2022-09-25T20:56:46.943Z,73.20
2022-09-25T20:59:18.183Z,74.20
2022-09-25T21:01:49.996Z,74.40
2022-09-25T21:04:19.890Z,73.80
2022-09-25T21:06:48.414Z,72.90
2022-09-25T21:09:21.606Z,73.50
2022-09-25T21:11:52.692Z,73.80
2022-09-25T21:14:22.955Z,73.80
2022-09-25T21:16:56.760Z,73.40
2022-09-25T21:19:27.990Z,73.70
2022-09-25T21:21:56.462Z,73.90
2022-09-25T21:24:25.065Z,73.90
2022-09-25T21:26:53.564Z,75.10
2022-09-25T21:29:22.573Z,75.20
2022-09-25T21:31:54.406Z,75.30
2022-09-25T21:34:29.155Z,75.20
2022-09-25T21:37:00.066Z,74.90
2022-09-25T21:39:30.286Z,74.90
2022-09-25T21:41:58.508Z,74.80
2022-09-25T21:44:26.797Z,74.70
2022-09-25T21:46:54.818Z,75.10
2022-09-25T21:49:23.599Z,75.00
2022-09-25T21:51:52.848Z,73.80
2022-09-25T21:54:20.835Z,74.20
2022-09-25T21:56:49.279Z,73.80
2022-09-25T21:59:17.868Z,73.20
2022-09-25T22:01:46.163Z,73.60
2022-09-25T22:04:15.248Z,73.80
2022-09-25T22:06:45.650Z,73.70
2022-09-25T22:09:18.718Z,73.50
2022-09-25T22:11:47.986Z,74.30
2022-09-25T22:14:17.187Z,73.10
2022-09-25T22:16:46.791Z,72.70
2022-09-25T22:19:16.549Z,71.90
2022-09-25T22:21:46.912Z,72.80
2022-09-25T22:24:17.028Z,71.80
2022-09-25T22:26:47.243Z,71.70
2022-09-25T22:29:16.419Z,71.70
2022-09-25T22:31:44.591Z,71.70
2022-09-25T22:34:18.074Z,72.60
2022-09-25T22:36:46.594Z,73.40
2022-09-25T22:39:17.818Z,72.70
2022-09-25T22:41:46.128Z,72.70
2022-09-25T22:44:14.374Z,72.60
2022-09-25T22:46:42.363Z,72.00
2022-09-25T22:49:10.331Z,73.30
2022-09-25T22:51:38.395Z,72.60
2022-09-25T22:54:06.966Z,73.20
2022-09-25T22:56:36.804Z,72.40
2022-09-25T22:59:07.685Z,72.40
2022-09-25T23:01:40.146Z,71.50
2022-09-25T23:04:11.255Z,71.50
2022-09-25T23:06:40.800Z,70.00
2022-09-25T23:09:12.186Z,71.30
2022-09-25T23:11:42.436Z,71.20
2022-09-25T23:14:14.506Z,70.80
2022-09-25T23:16:42.896Z,70.00
2022-09-25T23:19:11.438Z,68.90
2022-09-25T23:21:40.127Z,70.50
2022-09-25T23:24:16.916Z,71.10
2022-09-25T23:26:46.761Z,70.50
2022-09-25T23:29:17.577Z,69.80
2022-09-25T23:31:46.164Z,71.20
2022-09-25T23:34:15.392Z,71.10
2022-09-25T23:36:43.856Z,71.80
2022-09-25T23:39:16.310Z,71.10
2022-09-25T23:41:46.139Z,71.10
2022-09-25T23:44:14.159Z,71.10
2022-09-25T23:46:45.003Z,71.10
2022-09-25T23:49:13.582Z,71.10
2022-09-25T23:51:42.103Z,70.90
2022-09-25T23:54:12.112Z,71.70
2022-09-25T23:56:40.910Z,71.00
2022-09-25T23:59:12.089Z,71.40
